Airfield :
LOGIN :

Register | Disclaimer

   EN    FR    IT 

 










Legend :    VFR   Marginal VFR   IFR   Intensive IFR   Very Intensive IFR
Visi :
Ceiling :
>= 8 km
>= 3000ft
5 to 8 km
1000 to 3000 ft
1500m to 5 km
500 to 1000 ft
800 to 1500m
200 to 500 ft
< 800m
< 200 ft
Symbols :   Thunderstorms  Fog  Heavy snow  Heavy precipitations  Wind > 20 kt
SIGMETs :     Misc.  Thunderstorms  Icing  Turbulence  Mountain Waves  Volcanic Ashes






- Airport Elevation : 510 ft


LJCE - Cerklje

CURRENT METAR :
  • 130830Z 07005KT 040V100 9999 FEW023 27/21 Q1010 RMK BLU

EXPIRED METARs :
  • 130800Z 10004KT 9999 FEW023 27/21 Q1010 RMK BLU
  • 130730Z VRB02KT 9999 FEW020 26/21 Q1010 RMK BLU
  • 130700Z VRB01KT 9999 FEW020 26/21 Q1010 RMK BLU
  • 130630Z VRB02KT 9999 FEW020 25/21 Q1010 RMK BLU
  • 130600Z VRB02KT 9999 FEW020 24/21 Q1010 RMK BLU
  • 130530Z VRB02KT CAVOK 23/20 Q1010 RMK BLU
  • 130500Z AUTO 00000KT 9999 NSC 22/20 Q1010
  • 130430Z AUTO VRB03KT 9999 NCD 21/20 Q1010
  • 130400Z AUTO VRB01KT 9999 NCD 20/18 Q1010

TAF TAF LJCE
Valid from the 13 at 09:00 until the 13 at 18:00 UTC


130800Z 1309/1318 08005KT CAVOK



MET'MAP, your aeronautical weather chart ! - Copyright ORBIFLY December 2007 - Disclaimer

ORBIFLY MET'MAP TEAM :

Programming & Development : Alexandra Zaïnal
Original concept : Baudouin d'Aumeries
Technical & hardware support : Manuel Goepfert
Assistance : Marc-Olivier Méhu




SOURCES & CREDITS :

   NOAA